Airfield :
LOGIN :

Register | Disclaimer

   EN    FR    IT 

 










Legend :    VFR   Marginal VFR   IFR   Intensive IFR   Very Intensive IFR
Visi :
Ceiling :
>= 8 km
>= 3000ft
5 to 8 km
1000 to 3000 ft
1500m to 5 km
500 to 1000 ft
800 to 1500m
200 to 500 ft
< 800m
< 200 ft
Symbols :   Thunderstorms  Fog  Heavy snow  Heavy precipitations  Wind > 20 kt
SIGMETs :     Misc.  Thunderstorms  Icing  Turbulence  Mountain Waves  Volcanic Ashes







- Airport Elevation : 247 ft
- IATA code : BLL


EKBI - Billund

CURRENT METAR :
  • 180820Z AUTO 19007KT 140V210 9999 SCT070/// BKN100/// BKN200/// 22/15 Q1016

EXPIRED METARs :
  • 180750Z AUTO 19007KT 140V230 9999 SCT068/// BKN210/// 21/15 Q1016
  • 180720Z AUTO 18006KT 150V220 9999 SCT170/// 20/15 Q1016
  • 180650Z AUTO 17006KT 140V200 9999 BKN160/// 19/15 Q1016
  • 180620Z AUTO 17007KT 9999 FEW180/// SCT210/// 19/14 Q1016
  • 180550Z AUTO 16007KT 130V190 9999 SCT210/// 18/14 Q1016

TAF TAF EKBI
Valid from the 18 at 06:00 until the 19 at 06:00 UTC


180504Z 1806/1906 19008KT 9999 FEW040
TEMPO 1809/1812 SCT040TCU
TEMPO 1812/1817 SCT040CB
No reported NOTAMs for that airfield.



MET'MAP, your aeronautical weather chart ! - Copyright ORBIFLY December 2007 - Disclaimer

ORBIFLY MET'MAP TEAM :

Programming & Development : Alexandra Zaïnal
Concept & Development : Baudouin d'Aumeries
Co-Development & Prog : Marc-Olivier Méhu
Technical & hardware support : Manuel Goepfert

Contact : metmap@orbifly.com




SOURCES & CREDITS :

   NOAA